sensor_id;sensor_type;location;lat;lon;timestamp;P1;durP1;ratioP1;P2;durP2;ratioP2
13649;SDS011;6898;50.918;4.688;2022-08-20T00:02:26;10.80;;;8.00;;
13649;SDS011;6898;50.918;4.688;2022-08-20T00:04:55;10.32;;;7.90;;
13649;SDS011;6898;50.918;4.688;2022-08-20T00:07:24;10.85;;;7.88;;
13649;SDS011;6898;50.918;4.688;2022-08-20T00:09:53;10.50;;;8.18;;
13649;SDS011;6898;50.918;4.688;2022-08-20T00:12:21;9.50;;;7.75;;
13649;SDS011;6898;50.918;4.688;2022-08-20T00:14:50;11.23;;;8.57;;
13649;SDS011;6898;50.918;4.688;2022-08-20T00:17:18;9.73;;;7.75;;
13649;SDS011;6898;50.918;4.688;2022-08-20T00:19:46;9.27;;;8.20;;
13649;SDS011;6898;50.918;4.688;2022-08-20T00:22:15;9.32;;;7.88;;
13649;SDS011;6898;50.918;4.688;2022-08-20T00:24:45;9.32;;;8.00;;
13649;SDS011;6898;50.918;4.688;2022-08-20T00:27:13;10.95;;;7.80;;
13649;SDS011;6898;50.918;4.688;2022-08-20T00:29:41;9.93;;;8.03;;
13649;SDS011;6898;50.918;4.688;2022-08-20T00:32:10;11.45;;;8.32;;
13649;SDS011;6898;50.918;4.688;2022-08-20T00:34:38;9.57;;;8.20;;
13649;SDS011;6898;50.918;4.688;2022-08-20T00:37:07;10.50;;;8.50;;
13649;SDS011;6898;50.918;4.688;2022-08-20T00:39:36;11.02;;;8.60;;
13649;SDS011;6898;50.918;4.688;2022-08-20T00:42:06;11.05;;;8.93;;
13649;SDS011;6898;50.918;4.688;2022-08-20T00:44:35;10.75;;;8.38;;
13649;SDS011;6898;50.918;4.688;2022-08-20T00:47:03;9.20;;;7.63;;
13649;SDS011;6898;50.918;4.688;2022-08-20T00:49:31;10.32;;;7.75;;
13649;SDS011;6898;50.918;4.688;2022-08-20T00:52:01;11.23;;;7.53;;
13649;SDS011;6898;50.918;4.688;2022-08-20T00:54:32;11.20;;;7.90;;
13649;SDS011;6898;50.918;4.688;2022-08-20T00:57:03;9.98;;;7.47;;
13649;SDS011;6898;50.918;4.688;2022-08-20T00:59:34;10.57;;;7.60;;
13649;SDS011;6898;50.918;4.688;2022-08-20T01:02:05;9.80;;;7.57;;
13649;SDS011;6898;50.918;4.688;2022-08-20T01:04:35;11.85;;;7.75;;
13649;SDS011;6898;50.918;4.688;2022-08-20T01:07:04;11.15;;;7.88;;
13649;SDS011;6898;50.918;4.688;2022-08-20T01:09:33;11.10;;;7.88;;
13649;SDS011;6898;50.918;4.688;2022-08-20T01:12:03;14.35;;;8.52;;
13649;SDS011;6898;50.918;4.688;2022-08-20T01:14:39;10.45;;;7.50;;
13649;SDS011;6898;50.918;4.688;2022-08-20T01:17:13;10.85;;;7.82;;
13649;SDS011;6898;50.918;4.688;2022-08-20T01:19:44;11.32;;;7.82;;
13649;SDS011;6898;50.918;4.688;2022-08-20T01:22:16;10.30;;;7.07;;
13649;SDS011;6898;50.918;4.688;2022-08-20T01:25:07;11.40;;;7.50;;
13649;SDS011;6898;50.918;4.688;2022-08-20T01:27:38;10.23;;;7.17;;
13649;SDS011;6898;50.918;4.688;2022-08-20T01:30:07;12.55;;;6.93;;
13649;SDS011;6898;50.918;4.688;2022-08-20T01:32:36;9.25;;;6.75;;
13649;SDS011;6898;50.918;4.688;2022-08-20T01:35:05;12.68;;;7.13;;
13649;SDS011;6898;50.918;4.688;2022-08-20T01:37:33;10.50;;;7.18;;
13649;SDS011;6898;50.918;4.688;2022-08-20T01:40:03;12.98;;;6.60;;
13649;SDS011;6898;50.918;4.688;2022-08-20T01:42:36;12.45;;;6.78;;
13649;SDS011;6898;50.918;4.688;2022-08-20T01:45:06;11.90;;;7.22;;
13649;SDS011;6898;50.918;4.688;2022-08-20T01:47:35;11.38;;;6.70;;
13649;SDS011;6898;50.918;4.688;2022-08-20T01:50:06;11.25;;;6.68;;
13649;SDS011;6898;50.918;4.688;2022-08-20T01:52:39;9.65;;;6.32;;
13649;SDS011;6898;50.918;4.688;2022-08-20T01:55:09;11.13;;;6.60;;
13649;SDS011;6898;50.918;4.688;2022-08-20T01:57:38;11.50;;;6.28;;
13649;SDS011;6898;50.918;4.688;2022-08-20T02:00:10;12.48;;;6.72;;
13649;SDS011;6898;50.918;4.688;2022-08-20T02:02:39;9.35;;;6.25;;
13649;SDS011;6898;50.918;4.688;2022-08-20T02:05:08;10.38;;;6.22;;
13649;SDS011;6898;50.918;4.688;2022-08-20T02:07:37;11.45;;;6.10;;
13649;SDS011;6898;50.918;4.688;2022-08-20T02:10:06;12.30;;;6.45;;
13649;SDS011;6898;50.918;4.688;2022-08-20T02:12:35;13.65;;;6.13;;
13649;SDS011;6898;50.918;4.688;2022-08-20T02:15:06;12.73;;;6.07;;
13649;SDS011;6898;50.918;4.688;2022-08-20T02:17:38;15.00;;;6.00;;
13649;SDS011;6898;50.918;4.688;2022-08-20T02:20:08;12.23;;;6.00;;
13649;SDS011;6898;50.918;4.688;2022-08-20T02:22:39;11.07;;;5.53;;
13649;SDS011;6898;50.918;4.688;2022-08-20T02:25:09;11.45;;;5.93;;
13649;SDS011;6898;50.918;4.688;2022-08-20T02:27:39;15.15;;;6.13;;
13649;SDS011;6898;50.918;4.688;2022-08-20T02:30:10;14.03;;;5.47;;
13649;SDS011;6898;50.918;4.688;2022-08-20T02:32:40;13.02;;;5.60;;
13649;SDS011;6898;50.918;4.688;2022-08-20T02:35:09;14.63;;;5.63;;
13649;SDS011;6898;50.918;4.688;2022-08-20T02:37:39;15.75;;;5.53;;
13649;SDS011;6898;50.918;4.688;2022-08-20T02:40:09;12.30;;;5.78;;
13649;SDS011;6898;50.918;4.688;2022-08-20T02:42:38;16.43;;;5.73;;
13649;SDS011;6898;50.918;4.688;2022-08-20T02:45:07;14.32;;;5.72;;
13649;SDS011;6898;50.918;4.688;2022-08-20T02:47:41;12.73;;;5.43;;
13649;SDS011;6898;50.918;4.688;2022-08-20T02:50:11;14.10;;;5.50;;
13649;SDS011;6898;50.918;4.688;2022-08-20T02:52:40;13.77;;;5.60;;
13649;SDS011;6898;50.918;4.688;2022-08-20T02:55:09;17.60;;;5.70;;
13649;SDS011;6898;50.918;4.688;2022-08-20T02:57:38;16.40;;;5.60;;
13649;SDS011;6898;50.918;4.688;2022-08-20T03:00:09;15.10;;;5.80;;
13649;SDS011;6898;50.918;4.688;2022-08-20T03:02:37;13.45;;;5.50;;
13649;SDS011;6898;50.918;4.688;2022-08-20T03:05:08;14.05;;;5.82;;
13649;SDS011;6898;50.918;4.688;2022-08-20T03:07:39;12.07;;;5.50;;
13649;SDS011;6898;50.918;4.688;2022-08-20T03:10:08;13.52;;;5.68;;
13649;SDS011;6898;50.918;4.688;2022-08-20T03:12:37;14.88;;;5.88;;
13649;SDS011;6898;50.918;4.688;2022-08-20T03:15:07;15.77;;;5.90;;
13649;SDS011;6898;50.918;4.688;2022-08-20T03:17:37;16.13;;;5.75;;
13649;SDS011;6898;50.918;4.688;2022-08-20T03:20:06;14.65;;;5.50;;
13649;SDS011;6898;50.918;4.688;2022-08-20T03:22:37;12.38;;;5.35;;
13649;SDS011;6898;50.918;4.688;2022-08-20T03:25:05;15.88;;;5.47;;
13649;SDS011;6898;50.918;4.688;2022-08-20T03:27:34;15.23;;;5.53;;
13649;SDS011;6898;50.918;4.688;2022-08-20T03:30:03;14.23;;;6.10;;
13649;SDS011;6898;50.918;4.688;2022-08-20T03:32:32;13.50;;;5.70;;
13649;SDS011;6898;50.918;4.688;2022-08-20T03:35:00;16.40;;;5.90;;
13649;SDS011;6898;50.918;4.688;2022-08-20T03:37:29;15.25;;;5.75;;
13649;SDS011;6898;50.918;4.688;2022-08-20T03:39:59;17.02;;;6.07;;
13649;SDS011;6898;50.918;4.688;2022-08-20T03:42:28;13.25;;;5.80;;
13649;SDS011;6898;50.918;4.688;2022-08-20T03:44:57;15.60;;;6.15;;
13649;SDS011;6898;50.918;4.688;2022-08-20T03:47:28;15.27;;;6.25;;
13649;SDS011;6898;50.918;4.688;2022-08-20T03:49:57;15.00;;;6.20;;
13649;SDS011;6898;50.918;4.688;2022-08-20T03:52:26;15.98;;;6.00;;
13649;SDS011;6898;50.918;4.688;2022-08-20T03:54:55;17.47;;;6.33;;
13649;SDS011;6898;50.918;4.688;2022-08-20T03:57:25;17.92;;;6.68;;
13649;SDS011;6898;50.918;4.688;2022-08-20T03:59:54;17.05;;;6.55;;
13649;SDS011;6898;50.918;4.688;2022-08-20T04:02:23;17.92;;;6.60;;
13649;SDS011;6898;50.918;4.688;2022-08-20T04:04:52;17.00;;;6.70;;
13649;SDS011;6898;50.918;4.688;2022-08-20T04:07:21;15.50;;;6.40;;
13649;SDS011;6898;50.918;4.688;2022-08-20T04:09:52;15.88;;;6.88;;
13649;SDS011;6898;50.918;4.688;2022-08-20T04:12:22;18.92;;;6.97;;
13649;SDS011;6898;50.918;4.688;2022-08-20T04:14:53;14.87;;;6.57;;
13649;SDS011;6898;50.918;4.688;2022-08-20T04:17:21;16.63;;;6.75;;
13649;SDS011;6898;50.918;4.688;2022-08-20T04:19:49;16.33;;;6.47;;
13649;SDS011;6898;50.918;4.688;2022-08-20T04:22:18;18.63;;;7.10;;
13649;SDS011;6898;50.918;4.688;2022-08-20T04:24:46;20.30;;;7.22;;
13649;SDS011;6898;50.918;4.688;2022-08-20T04:27:15;19.13;;;6.80;;
13649;SDS011;6898;50.918;4.688;2022-08-20T04:29:46;18.13;;;7.20;;
13649;SDS011;6898;50.918;4.688;2022-08-20T04:32:16;16.75;;;6.95;;
13649;SDS011;6898;50.918;4.688;2022-08-20T04:34:46;17.50;;;7.10;;
13649;SDS011;6898;50.918;4.688;2022-08-20T04:37:18;20.20;;;8.60;;
13649;SDS011;6898;50.918;4.688;2022-08-20T04:39:47;16.92;;;8.73;;
13649;SDS011;6898;50.918;4.688;2022-08-20T04:42:36;16.10;;;6.97;;
13649;SDS011;6898;50.918;4.688;2022-08-20T04:45:05;19.20;;;7.22;;
13649;SDS011;6898;50.918;4.688;2022-08-20T04:47:35;16.73;;;7.60;;
13649;SDS011;6898;50.918;4.688;2022-08-20T04:50:06;18.52;;;7.75;;
13649;SDS011;6898;50.918;4.688;2022-08-20T04:52:35;18.33;;;7.32;;
13649;SDS011;6898;50.918;4.688;2022-08-20T04:55:04;21.33;;;9.82;;
13649;SDS011;6898;50.918;4.688;2022-08-20T04:57:33;14.88;;;7.25;;
13649;SDS011;6898;50.918;4.688;2022-08-20T05:00:04;17.40;;;8.02;;
13649;SDS011;6898;50.918;4.688;2022-08-20T05:02:35;17.53;;;7.80;;
13649;SDS011;6898;50.918;4.688;2022-08-20T05:05:03;18.92;;;7.47;;
13649;SDS011;6898;50.918;4.688;2022-08-20T05:07:36;14.45;;;7.20;;
13649;SDS011;6898;50.918;4.688;2022-08-20T05:10:06;18.07;;;7.33;;
13649;SDS011;6898;50.918;4.688;2022-08-20T05:12:35;17.08;;;7.47;;
13649;SDS011;6898;50.918;4.688;2022-08-20T05:15:04;17.00;;;7.35;;
13649;SDS011;6898;50.918;4.688;2022-08-20T05:17:32;19.92;;;7.30;;
13649;SDS011;6898;50.918;4.688;2022-08-20T05:20:02;16.60;;;7.40;;
13649;SDS011;6898;50.918;4.688;2022-08-20T05:22:31;19.40;;;7.82;;
13649;SDS011;6898;50.918;4.688;2022-08-20T05:25:00;20.55;;;8.18;;
13649;SDS011;6898;50.918;4.688;2022-08-20T05:27:28;17.15;;;7.22;;
13649;SDS011;6898;50.918;4.688;2022-08-20T05:29:58;18.80;;;8.13;;
13649;SDS011;6898;50.918;4.688;2022-08-20T05:32:27;21.48;;;7.97;;
13649;SDS011;6898;50.918;4.688;2022-08-20T05:34:55;17.27;;;7.40;;
13649;SDS011;6898;50.918;4.688;2022-08-20T05:37:25;16.15;;;7.35;;
13649;SDS011;6898;50.918;4.688;2022-08-20T05:39:55;19.00;;;7.97;;
13649;SDS011;6898;50.918;4.688;2022-08-20T05:42:23;18.88;;;7.47;;
13649;SDS011;6898;50.918;4.688;2022-08-20T05:44:52;18.00;;;7.60;;
13649;SDS011;6898;50.918;4.688;2022-08-20T05:47:21;15.70;;;7.38;;
13649;SDS011;6898;50.918;4.688;2022-08-20T05:49:54;21.02;;;8.05;;
13649;SDS011;6898;50.918;4.688;2022-08-20T05:52:23;20.13;;;7.70;;
13649;SDS011;6898;50.918;4.688;2022-08-20T05:54:53;19.48;;;7.82;;
13649;SDS011;6898;50.918;4.688;2022-08-20T05:57:21;21.52;;;8.30;;
13649;SDS011;6898;50.918;4.688;2022-08-20T05:59:50;19.80;;;7.70;;
13649;SDS011;6898;50.918;4.688;2022-08-20T06:02:18;21.90;;;8.20;;
13649;SDS011;6898;50.918;4.688;2022-08-20T06:05:05;16.60;;;7.90;;
13649;SDS011;6898;50.918;4.688;2022-08-20T06:07:33;20.77;;;8.40;;
13649;SDS011;6898;50.918;4.688;2022-08-20T06:10:06;18.23;;;8.07;;
13649;SDS011;6898;50.918;4.688;2022-08-20T06:12:35;22.55;;;9.07;;
13649;SDS011;6898;50.918;4.688;2022-08-20T06:15:04;18.73;;;8.47;;
13649;SDS011;6898;50.918;4.688;2022-08-20T06:17:32;17.00;;;7.70;;
13649;SDS011;6898;50.918;4.688;2022-08-20T06:20:02;18.88;;;8.70;;
13649;SDS011;6898;50.918;4.688;2022-08-20T06:22:32;22.00;;;9.02;;
13649;SDS011;6898;50.918;4.688;2022-08-20T06:25:01;22.67;;;8.90;;
13649;SDS011;6898;50.918;4.688;2022-08-20T06:27:30;18.83;;;8.40;;
13649;SDS011;6898;50.918;4.688;2022-08-20T06:30:02;21.95;;;8.73;;
13649;SDS011;6898;50.918;4.688;2022-08-20T06:32:42;23.13;;;9.00;;
13649;SDS011;6898;50.918;4.688;2022-08-20T06:35:11;20.58;;;9.32;;
13649;SDS011;6898;50.918;4.688;2022-08-20T06:37:43;21.57;;;8.77;;
13649;SDS011;6898;50.918;4.688;2022-08-20T06:40:12;21.33;;;9.25;;
13649;SDS011;6898;50.918;4.688;2022-08-20T06:42:43;21.35;;;8.57;;
13649;SDS011;6898;50.918;4.688;2022-08-20T06:45:14;20.58;;;8.70;;
13649;SDS011;6898;50.918;4.688;2022-08-20T06:47:43;21.40;;;9.25;;
13649;SDS011;6898;50.918;4.688;2022-08-20T06:50:14;28.00;;;9.63;;
13649;SDS011;6898;50.918;4.688;2022-08-20T06:52:43;21.65;;;9.93;;
13649;SDS011;6898;50.918;4.688;2022-08-20T06:55:13;27.33;;;10.43;;
13649;SDS011;6898;50.918;4.688;2022-08-20T06:57:43;28.73;;;10.70;;
13649;SDS011;6898;50.918;4.688;2022-08-20T07:00:14;28.38;;;10.43;;
13649;SDS011;6898;50.918;4.688;2022-08-20T07:02:43;29.67;;;12.00;;
13649;SDS011;6898;50.918;4.688;2022-08-20T07:05:13;27.17;;;11.20;;
13649;SDS011;6898;50.918;4.688;2022-08-20T07:07:43;30.20;;;11.32;;
13649;SDS011;6898;50.918;4.688;2022-08-20T07:10:13;33.08;;;12.65;;
13649;SDS011;6898;50.918;4.688;2022-08-20T07:12:43;33.08;;;12.60;;
13649;SDS011;6898;50.918;4.688;2022-08-20T07:15:12;34.50;;;12.75;;
13649;SDS011;6898;50.918;4.688;2022-08-20T07:17:41;34.35;;;12.73;;
13649;SDS011;6898;50.918;4.688;2022-08-20T07:20:11;33.80;;;13.00;;
13649;SDS011;6898;50.918;4.688;2022-08-20T07:22:40;29.45;;;11.57;;
13649;SDS011;6898;50.918;4.688;2022-08-20T07:25:09;28.03;;;11.40;;
13649;SDS011;6898;50.918;4.688;2022-08-20T07:27:39;28.42;;;11.13;;
13649;SDS011;6898;50.918;4.688;2022-08-20T07:30:11;28.67;;;11.75;;
13649;SDS011;6898;50.918;4.688;2022-08-20T07:32:58;26.40;;;10.65;;
13649;SDS011;6898;50.918;4.688;2022-08-20T07:35:26;29.73;;;11.57;;
13649;SDS011;6898;50.918;4.688;2022-08-20T07:37:55;26.73;;;11.50;;
13649;SDS011;6898;50.918;4.688;2022-08-20T07:40:25;27.20;;;11.23;;
13649;SDS011;6898;50.918;4.688;2022-08-20T07:42:54;24.98;;;11.05;;
13649;SDS011;6898;50.918;4.688;2022-08-20T07:45:25;25.73;;;11.20;;
13649;SDS011;6898;50.918;4.688;2022-08-20T07:47:53;24.73;;;11.37;;
13649;SDS011;6898;50.918;4.688;2022-08-20T07:50:23;24.70;;;10.90;;
13649;SDS011;6898;50.918;4.688;2022-08-20T07:52:51;23.88;;;11.40;;
13649;SDS011;6898;50.918;4.688;2022-08-20T07:55:20;33.83;;;13.50;;
13649;SDS011;6898;50.918;4.688;2022-08-20T07:57:49;33.20;;;14.02;;
13649;SDS011;6898;50.918;4.688;2022-08-20T08:00:18;36.35;;;17.90;;
13649;SDS011;6898;50.918;4.688;2022-08-20T08:02:48;40.35;;;20.92;;
13649;SDS011;6898;50.918;4.688;2022-08-20T08:05:17;45.60;;;22.77;;
13649;SDS011;6898;50.918;4.688;2022-08-20T08:07:45;42.90;;;22.17;;
13649;SDS011;6898;50.918;4.688;2022-08-20T08:10:15;43.05;;;21.08;;
13649;SDS011;6898;50.918;4.688;2022-08-20T08:12:45;40.83;;;19.80;;
13649;SDS011;6898;50.918;4.688;2022-08-20T08:15:19;40.08;;;18.73;;
13649;SDS011;6898;50.918;4.688;2022-08-20T08:17:50;34.42;;;18.02;;
13649;SDS011;6898;50.918;4.688;2022-08-20T08:20:20;31.30;;;17.50;;
13649;SDS011;6898;50.918;4.688;2022-08-20T08:22:51;32.33;;;17.35;;
13649;SDS011;6898;50.918;4.688;2022-08-20T08:25:20;32.25;;;16.77;;
13649;SDS011;6898;50.918;4.688;2022-08-20T08:27:48;33.58;;;16.80;;
13649;SDS011;6898;50.918;4.688;2022-08-20T08:30:16;30.08;;;17.30;;
13649;SDS011;6898;50.918;4.688;2022-08-20T08:32:46;31.40;;;17.02;;
13649;SDS011;6898;50.918;4.688;2022-08-20T08:35:33;32.00;;;17.25;;
13649;SDS011;6898;50.918;4.688;2022-08-20T08:38:04;31.80;;;17.77;;
13649;SDS011;6898;50.918;4.688;2022-08-20T08:40:33;29.98;;;17.55;;
13649;SDS011;6898;50.918;4.688;2022-08-20T08:43:01;27.33;;;16.60;;
13649;SDS011;6898;50.918;4.688;2022-08-20T08:45:33;29.67;;;16.83;;
13649;SDS011;6898;50.918;4.688;2022-08-20T08:48:03;25.65;;;15.10;;
13649;SDS011;6898;50.918;4.688;2022-08-20T08:50:33;23.88;;;15.45;;
13649;SDS011;6898;50.918;4.688;2022-08-20T08:53:17;23.97;;;13.70;;
13649;SDS011;6898;50.918;4.688;2022-08-20T08:55:47;23.50;;;13.87;;
13649;SDS011;6898;50.918;4.688;2022-08-20T08:58:15;20.73;;;12.60;;
13649;SDS011;6898;50.918;4.688;2022-08-20T09:00:44;22.63;;;11.13;;
13649;SDS011;6898;50.918;4.688;2022-08-20T09:03:15;14.88;;;8.80;;
13649;SDS011;6898;50.918;4.688;2022-08-20T09:05:47;18.05;;;8.82;;
13649;SDS011;6898;50.918;4.688;2022-08-20T09:08:19;19.98;;;9.77;;
13649;SDS011;6898;50.918;4.688;2022-08-20T09:10:49;18.77;;;9.07;;
13649;SDS011;6898;50.918;4.688;2022-08-20T09:13:17;12.18;;;7.65;;
13649;SDS011;6898;50.918;4.688;2022-08-20T09:15:46;15.80;;;7.75;;
13649;SDS011;6898;50.918;4.688;2022-08-20T09:18:14;13.75;;;8.10;;
13649;SDS011;6898;50.918;4.688;2022-08-20T09:20:43;13.03;;;6.70;;
13649;SDS011;6898;50.918;4.688;2022-08-20T09:23:12;12.02;;;6.53;;
13649;SDS011;6898;50.918;4.688;2022-08-20T09:25:41;13.80;;;6.82;;
13649;SDS011;6898;50.918;4.688;2022-08-20T09:28:09;8.35;;;5.40;;
13649;SDS011;6898;50.918;4.688;2022-08-20T09:30:38;10.10;;;5.40;;
13649;SDS011;6898;50.918;4.688;2022-08-20T09:33:06;12.75;;;5.22;;
13649;SDS011;6898;50.918;4.688;2022-08-20T09:35:35;9.95;;;5.20;;
13649;SDS011;6898;50.918;4.688;2022-08-20T09:38:05;10.45;;;4.93;;
13649;SDS011;6898;50.918;4.688;2022-08-20T09:40:35;11.68;;;5.20;;
13649;SDS011;6898;50.918;4.688;2022-08-20T09:43:04;9.77;;;5.07;;
13649;SDS011;6898;50.918;4.688;2022-08-20T09:45:32;9.52;;;4.20;;
13649;SDS011;6898;50.918;4.688;2022-08-20T09:48:01;10.15;;;4.00;;
13649;SDS011;6898;50.918;4.688;2022-08-20T09:50:31;9.13;;;4.00;;
13649;SDS011;6898;50.918;4.688;2022-08-20T09:53:00;8.80;;;3.80;;
13649;SDS011;6898;50.918;4.688;2022-08-20T09:55:31;8.57;;;3.83;;
13649;SDS011;6898;50.918;4.688;2022-08-20T09:58:01;10.18;;;4.03;;
13649;SDS011;6898;50.918;4.688;2022-08-20T10:00:30;10.25;;;3.88;;
13649;SDS011;6898;50.918;4.688;2022-08-20T10:02:59;9.05;;;3.33;;
13649;SDS011;6898;50.918;4.688;2022-08-20T10:05:28;8.68;;;3.47;;
13649;SDS011;6898;50.918;4.688;2022-08-20T10:07:58;11.07;;;3.63;;
13649;SDS011;6898;50.918;4.688;2022-08-20T10:10:30;9.85;;;3.83;;
13649;SDS011;6898;50.918;4.688;2022-08-20T10:12:58;9.90;;;3.90;;
13649;SDS011;6898;50.918;4.688;2022-08-20T10:15:29;10.07;;;3.90;;
13649;SDS011;6898;50.918;4.688;2022-08-20T10:17:57;8.77;;;3.50;;
13649;SDS011;6898;50.918;4.688;2022-08-20T10:20:30;8.25;;;3.38;;
13649;SDS011;6898;50.918;4.688;2022-08-20T10:22:59;8.02;;;3.25;;
13649;SDS011;6898;50.918;4.688;2022-08-20T10:25:28;9.13;;;3.30;;
13649;SDS011;6898;50.918;4.688;2022-08-20T10:27:56;8.43;;;3.27;;
13649;SDS011;6898;50.918;4.688;2022-08-20T10:30:25;10.70;;;3.28;;
13649;SDS011;6898;50.918;4.688;2022-08-20T10:32:55;7.25;;;3.22;;
13649;SDS011;6898;50.918;4.688;2022-08-20T10:35:23;8.67;;;3.50;;
13649;SDS011;6898;50.918;4.688;2022-08-20T10:37:51;10.43;;;3.40;;
13649;SDS011;6898;50.918;4.688;2022-08-20T10:40:20;8.88;;;3.40;;
13649;SDS011;6898;50.918;4.688;2022-08-20T10:42:49;8.50;;;3.30;;
13649;SDS011;6898;50.918;4.688;2022-08-20T10:45:17;8.43;;;2.95;;
13649;SDS011;6898;50.918;4.688;2022-08-20T10:47:46;8.25;;;3.17;;
13649;SDS011;6898;50.918;4.688;2022-08-20T10:50:16;11.60;;;3.50;;
13649;SDS011;6898;50.918;4.688;2022-08-20T10:52:45;8.45;;;3.10;;
13649;SDS011;6898;50.918;4.688;2022-08-20T10:55:13;8.48;;;3.22;;
13649;SDS011;6898;50.918;4.688;2022-08-20T10:57:42;7.75;;;3.15;;
13649;SDS011;6898;50.918;4.688;2022-08-20T11:00:11;9.73;;;3.03;;
13649;SDS011;6898;50.918;4.688;2022-08-20T11:02:40;9.48;;;3.30;;
13649;SDS011;6898;50.918;4.688;2022-08-20T11:05:08;7.18;;;2.92;;
13649;SDS011;6898;50.918;4.688;2022-08-20T11:07:39;10.65;;;3.28;;
13649;SDS011;6898;50.918;4.688;2022-08-20T11:10:08;12.13;;;3.47;;
13649;SDS011;6898;50.918;4.688;2022-08-20T11:12:38;7.03;;;2.67;;
13649;SDS011;6898;50.918;4.688;2022-08-20T11:15:07;8.20;;;2.80;;
13649;SDS011;6898;50.918;4.688;2022-08-20T11:17:38;8.80;;;2.93;;
13649;SDS011;6898;50.918;4.688;2022-08-20T11:20:07;7.82;;;3.00;;
13649;SDS011;6898;50.918;4.688;2022-08-20T11:22:36;9.48;;;3.13;;
13649;SDS011;6898;50.918;4.688;2022-08-20T11:25:07;8.45;;;3.03;;
13649;SDS011;6898;50.918;4.688;2022-08-20T11:27:37;7.40;;;2.80;;
13649;SDS011;6898;50.918;4.688;2022-08-20T11:30:07;8.47;;;3.13;;
13649;SDS011;6898;50.918;4.688;2022-08-20T11:32:36;8.35;;;3.10;;
13649;SDS011;6898;50.918;4.688;2022-08-20T11:35:05;9.77;;;3.40;;
13649;SDS011;6898;50.918;4.688;2022-08-20T11:37:44;9.40;;;3.60;;
13649;SDS011;6898;50.918;4.688;2022-08-20T11:40:14;9.70;;;3.10;;
13649;SDS011;6898;50.918;4.688;2022-08-20T11:42:42;8.77;;;3.45;;
13649;SDS011;6898;50.918;4.688;2022-08-20T11:45:23;8.38;;;3.28;;
13649;SDS011;6898;50.918;4.688;2022-08-20T11:47:52;8.52;;;3.30;;
13649;SDS011;6898;50.918;4.688;2022-08-20T11:50:20;8.30;;;3.30;;
13649;SDS011;6898;50.918;4.688;2022-08-20T11:52:49;9.75;;;3.45;;
13649;SDS011;6898;50.918;4.688;2022-08-20T11:55:19;8.30;;;3.20;;
13649;SDS011;6898;50.918;4.688;2022-08-20T11:57:47;12.02;;;3.38;;
13649;SDS011;6898;50.918;4.688;2022-08-20T12:00:17;9.65;;;3.42;;
13649;SDS011;6898;50.918;4.688;2022-08-20T12:02:46;10.43;;;3.58;;
13649;SDS011;6898;50.918;4.688;2022-08-20T12:05:17;9.68;;;3.20;;
13649;SDS011;6898;50.918;4.688;2022-08-20T12:07:46;8.68;;;3.15;;
13649;SDS011;6898;50.918;4.688;2022-08-20T12:10:14;10.27;;;3.10;;
13649;SDS011;6898;50.918;4.688;2022-08-20T12:12:44;7.32;;;3.15;;
13649;SDS011;6898;50.918;4.688;2022-08-20T12:15:13;8.52;;;3.17;;
13649;SDS011;6898;50.918;4.688;2022-08-20T12:17:41;8.63;;;3.30;;
13649;SDS011;6898;50.918;4.688;2022-08-20T12:20:11;7.78;;;3.28;;
13649;SDS011;6898;50.918;4.688;2022-08-20T12:22:40;7.53;;;2.85;;
13649;SDS011;6898;50.918;4.688;2022-08-20T12:25:09;8.20;;;3.00;;
13649;SDS011;6898;50.918;4.688;2022-08-20T12:27:38;8.50;;;2.78;;
13649;SDS011;6898;50.918;4.688;2022-08-20T12:30:09;8.43;;;3.17;;
13649;SDS011;6898;50.918;4.688;2022-08-20T12:32:38;7.43;;;2.80;;
13649;SDS011;6898;50.918;4.688;2022-08-20T12:35:08;9.07;;;3.30;;
13649;SDS011;6898;50.918;4.688;2022-08-20T12:37:39;7.10;;;2.80;;
13649;SDS011;6898;50.918;4.688;2022-08-20T12:40:09;7.57;;;2.75;;
13649;SDS011;6898;50.918;4.688;2022-08-20T12:42:38;11.02;;;2.90;;
13649;SDS011;6898;50.918;4.688;2022-08-20T12:45:08;8.93;;;3.13;;
13649;SDS011;6898;50.918;4.688;2022-08-20T12:47:37;9.37;;;3.00;;
13649;SDS011;6898;50.918;4.688;2022-08-20T12:50:08;8.38;;;3.10;;
13649;SDS011;6898;50.918;4.688;2022-08-20T12:52:37;8.30;;;2.90;;
13649;SDS011;6898;50.918;4.688;2022-08-20T12:55:07;10.02;;;3.10;;
13649;SDS011;6898;50.918;4.688;2022-08-20T12:57:36;6.80;;;3.00;;
13649;SDS011;6898;50.918;4.688;2022-08-20T13:00:06;10.52;;;3.13;;
13649;SDS011;6898;50.918;4.688;2022-08-20T13:02:36;7.53;;;2.97;;
13649;SDS011;6898;50.918;4.688;2022-08-20T13:05:06;7.97;;;2.80;;
13649;SDS011;6898;50.918;4.688;2022-08-20T13:07:38;8.00;;;2.83;;
13649;SDS011;6898;50.918;4.688;2022-08-20T13:10:07;7.18;;;2.80;;
13649;SDS011;6898;50.918;4.688;2022-08-20T13:12:36;7.72;;;2.80;;
13649;SDS011;6898;50.918;4.688;2022-08-20T13:15:05;6.97;;;2.40;;
13649;SDS011;6898;50.918;4.688;2022-08-20T13:17:33;6.78;;;2.60;;
13649;SDS011;6898;50.918;4.688;2022-08-20T13:20:04;8.70;;;3.00;;
13649;SDS011;6898;50.918;4.688;2022-08-20T13:22:34;7.95;;;2.95;;
13649;SDS011;6898;50.918;4.688;2022-08-20T13:25:02;8.57;;;2.85;;
13649;SDS011;6898;50.918;4.688;2022-08-20T13:27:31;11.82;;;2.88;;
13649;SDS011;6898;50.918;4.688;2022-08-20T13:30:04;7.25;;;2.50;;
13649;SDS011;6898;50.918;4.688;2022-08-20T13:32:32;7.30;;;2.50;;
13649;SDS011;6898;50.918;4.688;2022-08-20T13:35:01;5.97;;;2.60;;
13649;SDS011;6898;50.918;4.688;2022-08-20T13:37:31;5.65;;;2.50;;
13649;SDS011;6898;50.918;4.688;2022-08-20T13:39:59;6.35;;;2.42;;
13649;SDS011;6898;50.918;4.688;2022-08-20T13:42:28;7.43;;;2.20;;
13649;SDS011;6898;50.918;4.688;2022-08-20T13:44:57;5.78;;;2.30;;
13649;SDS011;6898;50.918;4.688;2022-08-20T13:47:26;5.97;;;2.20;;
13649;SDS011;6898;50.918;4.688;2022-08-20T13:49:56;5.53;;;2.10;;
13649;SDS011;6898;50.918;4.688;2022-08-20T13:52:25;4.60;;;2.45;;
13649;SDS011;6898;50.918;4.688;2022-08-20T13:54:56;5.17;;;2.10;;
13649;SDS011;6898;50.918;4.688;2022-08-20T13:57:25;6.78;;;2.25;;
13649;SDS011;6898;50.918;4.688;2022-08-20T13:59:54;5.83;;;2.20;;
13649;SDS011;6898;50.918;4.688;2022-08-20T14:02:23;4.32;;;2.30;;
13649;SDS011;6898;50.918;4.688;2022-08-20T14:04:52;6.40;;;2.40;;
13649;SDS011;6898;50.918;4.688;2022-08-20T14:07:22;6.00;;;2.20;;
13649;SDS011;6898;50.918;4.688;2022-08-20T14:09:53;5.18;;;2.50;;
13649;SDS011;6898;50.918;4.688;2022-08-20T14:12:24;4.68;;;2.13;;
13649;SDS011;6898;50.918;4.688;2022-08-20T14:14:53;6.50;;;2.22;;
13649;SDS011;6898;50.918;4.688;2022-08-20T14:17:22;4.63;;;2.30;;
13649;SDS011;6898;50.918;4.688;2022-08-20T14:19:52;7.55;;;2.50;;
13649;SDS011;6898;50.918;4.688;2022-08-20T14:22:24;6.13;;;2.35;;
13649;SDS011;6898;50.918;4.688;2022-08-20T14:24:53;5.60;;;2.40;;
13649;SDS011;6898;50.918;4.688;2022-08-20T14:27:21;5.07;;;2.45;;
13649;SDS011;6898;50.918;4.688;2022-08-20T14:29:54;5.60;;;2.47;;
13649;SDS011;6898;50.918;4.688;2022-08-20T14:32:22;4.85;;;2.13;;
13649;SDS011;6898;50.918;4.688;2022-08-20T14:34:51;7.68;;;2.40;;
13649;SDS011;6898;50.918;4.688;2022-08-20T14:37:21;4.60;;;2.30;;
13649;SDS011;6898;50.918;4.688;2022-08-20T14:39:51;4.60;;;2.35;;
13649;SDS011;6898;50.918;4.688;2022-08-20T14:42:19;5.90;;;2.67;;
13649;SDS011;6898;50.918;4.688;2022-08-20T14:44:49;7.30;;;2.88;;
13649;SDS011;6898;50.918;4.688;2022-08-20T14:47:20;4.88;;;2.65;;
13649;SDS011;6898;50.918;4.688;2022-08-20T14:49:50;5.65;;;2.53;;
13649;SDS011;6898;50.918;4.688;2022-08-20T14:52:18;5.93;;;2.75;;
13649;SDS011;6898;50.918;4.688;2022-08-20T14:54:47;5.53;;;2.78;;
13649;SDS011;6898;50.918;4.688;2022-08-20T14:57:16;5.07;;;2.80;;
13649;SDS011;6898;50.918;4.688;2022-08-20T14:59:47;4.90;;;2.40;;
13649;SDS011;6898;50.918;4.688;2022-08-20T15:02:16;6.78;;;2.40;;
13649;SDS011;6898;50.918;4.688;2022-08-20T15:04:46;5.53;;;2.58;;
13649;SDS011;6898;50.918;4.688;2022-08-20T15:07:14;6.03;;;2.83;;